sensor_id;sensor_type;location;lat;lon;timestamp;temperature;humidity
32348;DHT22;18821;44.800;10.326;2022-12-07T00:01:43;6.60;99.90
32348;DHT22;18821;44.800;10.326;2022-12-07T00:04:13;6.50;99.90
32348;DHT22;18821;44.800;10.326;2022-12-07T00:06:42;6.60;99.90
32348;DHT22;18821;44.800;10.326;2022-12-07T00:09:14;6.50;99.90
32348;DHT22;18821;44.800;10.326;2022-12-07T00:11:42;6.50;99.90
32348;DHT22;18821;44.800;10.326;2022-12-07T00:14:12;6.60;99.90
32348;DHT22;18821;44.800;10.326;2022-12-07T00:16:39;6.70;99.90
32348;DHT22;18821;44.800;10.326;2022-12-07T00:19:05;6.70;99.90
32348;DHT22;18821;44.800;10.326;2022-12-07T00:21:34;6.70;99.90
32348;DHT22;18821;44.800;10.326;2022-12-07T00:24:02;6.70;99.90
32348;DHT22;18821;44.800;10.326;2022-12-07T00:26:30;6.70;99.90
32348;DHT22;18821;44.800;10.326;2022-12-07T00:29:04;6.70;99.90
32348;DHT22;18821;44.800;10.326;2022-12-07T00:31:36;6.70;99.90
32348;DHT22;18821;44.800;10.326;2022-12-07T00:34:05;6.70;99.90
32348;DHT22;18821;44.800;10.326;2022-12-07T00:36:32;6.70;99.90
32348;DHT22;18821;44.800;10.326;2022-12-07T00:38:59;6.60;99.90
32348;DHT22;18821;44.800;10.326;2022-12-07T00:41:26;6.60;99.90
32348;DHT22;18821;44.800;10.326;2022-12-07T00:43:53;6.70;99.90
32348;DHT22;18821;44.800;10.326;2022-12-07T00:46:20;6.60;99.90
32348;DHT22;18821;44.800;10.326;2022-12-07T00:48:46;6.60;99.90
32348;DHT22;18821;44.800;10.326;2022-12-07T00:51:14;6.60;99.90
32348;DHT22;18821;44.800;10.326;2022-12-07T00:53:41;6.60;99.90
32348;DHT22;18821;44.800;10.326;2022-12-07T00:56:16;6.50;99.90
32348;DHT22;18821;44.800;10.326;2022-12-07T00:58:42;6.60;99.90
32348;DHT22;18821;44.800;10.326;2022-12-07T01:01:10;6.60;99.90
32348;DHT22;18821;44.800;10.326;2022-12-07T01:03:37;6.60;99.90
32348;DHT22;18821;44.800;10.326;2022-12-07T01:06:04;6.60;99.90
32348;DHT22;18821;44.800;10.326;2022-12-07T01:08:30;6.50;99.90
32348;DHT22;18821;44.800;10.326;2022-12-07T01:11:04;6.50;99.90
32348;DHT22;18821;44.800;10.326;2022-12-07T01:13:32;6.50;99.90
32348;DHT22;18821;44.800;10.326;2022-12-07T01:16:00;6.50;99.90
32348;DHT22;18821;44.800;10.326;2022-12-07T01:18:28;6.50;99.90
32348;DHT22;18821;44.800;10.326;2022-12-07T01:21:06;6.50;99.90
32348;DHT22;18821;44.800;10.326;2022-12-07T01:23:34;6.50;99.90
32348;DHT22;18821;44.800;10.326;2022-12-07T01:26:03;6.50;99.90
32348;DHT22;18821;44.800;10.326;2022-12-07T01:28:29;6.50;99.90
32348;DHT22;18821;44.800;10.326;2022-12-07T01:33:27;6.50;99.90
32348;DHT22;18821;44.800;10.326;2022-12-07T01:35:54;6.50;99.90
32348;DHT22;18821;44.800;10.326;2022-12-07T01:38:20;6.50;99.90
32348;DHT22;18821;44.800;10.326;2022-12-07T01:40:55;6.50;99.90
32348;DHT22;18821;44.800;10.326;2022-12-07T01:43:21;6.50;99.90
32348;DHT22;18821;44.800;10.326;2022-12-07T01:45:48;6.50;99.90
32348;DHT22;18821;44.800;10.326;2022-12-07T01:48:16;6.50;99.90
32348;DHT22;18821;44.800;10.326;2022-12-07T01:50:45;6.50;99.90
32348;DHT22;18821;44.800;10.326;2022-12-07T01:53:13;6.50;99.90
32348;DHT22;18821;44.800;10.326;2022-12-07T01:55:42;6.50;99.90
32348;DHT22;18821;44.800;10.326;2022-12-07T01:58:10;6.50;99.90
32348;DHT22;18821;44.800;10.326;2022-12-07T02:00:38;6.50;99.90
32348;DHT22;18821;44.800;10.326;2022-12-07T02:03:05;6.50;99.90
32348;DHT22;18821;44.800;10.326;2022-12-07T02:05:34;6.50;99.90
32348;DHT22;18821;44.800;10.326;2022-12-07T02:08:00;6.50;99.90
32348;DHT22;18821;44.800;10.326;2022-12-07T02:10:29;6.40;99.90
32348;DHT22;18821;44.800;10.326;2022-12-07T02:13:18;6.40;99.90
32348;DHT22;18821;44.800;10.326;2022-12-07T02:27:10;6.30;99.90
32348;DHT22;18821;44.800;10.326;2022-12-07T02:32:16;6.30;99.90
32348;DHT22;18821;44.800;10.326;2022-12-07T02:37:41;6.20;99.90
32348;DHT22;18821;44.800;10.326;2022-12-07T02:42:41;6.00;99.90
32348;DHT22;18821;44.800;10.326;2022-12-07T02:45:12;5.90;99.90
32348;DHT22;18821;44.800;10.326;2022-12-07T02:47:39;5.90;99.90
32348;DHT22;18821;44.800;10.326;2022-12-07T02:50:07;6.00;99.90
32348;DHT22;18821;44.800;10.326;2022-12-07T02:52:33;6.00;99.90
32348;DHT22;18821;44.800;10.326;2022-12-07T02:54:59;6.00;99.90
32348;DHT22;18821;44.800;10.326;2022-12-07T02:57:38;6.10;99.90
32348;DHT22;18821;44.800;10.326;2022-12-07T03:00:10;6.10;99.90
32348;DHT22;18821;44.800;10.326;2022-12-07T03:16:50;5.90;99.90
32348;DHT22;18821;44.800;10.326;2022-12-07T03:19:19;5.90;99.90
32348;DHT22;18821;44.800;10.326;2022-12-07T03:21:55;5.80;99.90
32348;DHT22;18821;44.800;10.326;2022-12-07T03:24:26;5.70;99.90
32348;DHT22;18821;44.800;10.326;2022-12-07T03:27:05;5.70;99.90
32348;DHT22;18821;44.800;10.326;2022-12-07T03:29:38;5.70;99.90
32348;DHT22;18821;44.800;10.326;2022-12-07T03:32:31;5.70;99.90
32348;DHT22;18821;44.800;10.326;2022-12-07T03:38:31;5.60;99.90
32348;DHT22;18821;44.800;10.326;2022-12-07T03:43:11;5.60;99.90
32348;DHT22;18821;44.800;10.326;2022-12-07T03:51:37;5.30;99.90
32348;DHT22;18821;44.800;10.326;2022-12-07T03:53:53;5.40;99.90
32348;DHT22;18821;44.800;10.326;2022-12-07T03:56:21;5.30;99.90
32348;DHT22;18821;44.800;10.326;2022-12-07T03:58:48;5.30;99.90
32348;DHT22;18821;44.800;10.326;2022-12-07T04:01:14;5.30;99.90
32348;DHT22;18821;44.800;10.326;2022-12-07T04:03:40;5.30;99.90
32348;DHT22;18821;44.800;10.326;2022-12-07T04:06:07;5.20;99.90
32348;DHT22;18821;44.800;10.326;2022-12-07T04:08:33;5.20;99.90
32348;DHT22;18821;44.800;10.326;2022-12-07T04:10:59;5.20;99.90
32348;DHT22;18821;44.800;10.326;2022-12-07T04:13:25;5.30;99.90
32348;DHT22;18821;44.800;10.326;2022-12-07T04:15:51;5.20;99.90
32348;DHT22;18821;44.800;10.326;2022-12-07T04:18:17;5.30;99.90
32348;DHT22;18821;44.800;10.326;2022-12-07T04:20:43;5.30;99.90
32348;DHT22;18821;44.800;10.326;2022-12-07T04:23:09;5.30;99.90
32348;DHT22;18821;44.800;10.326;2022-12-07T04:25:35;5.20;99.90
32348;DHT22;18821;44.800;10.326;2022-12-07T04:28:01;5.20;99.90
32348;DHT22;18821;44.800;10.326;2022-12-07T04:30:27;5.20;99.90
32348;DHT22;18821;44.800;10.326;2022-12-07T04:32:53;5.20;99.90
32348;DHT22;18821;44.800;10.326;2022-12-07T04:35:19;5.20;99.90
32348;DHT22;18821;44.800;10.326;2022-12-07T04:37:45;5.20;99.90
32348;DHT22;18821;44.800;10.326;2022-12-07T04:40:11;5.20;99.90
32348;DHT22;18821;44.800;10.326;2022-12-07T04:42:40;5.10;99.90
32348;DHT22;18821;44.800;10.326;2022-12-07T04:45:06;5.10;99.90
32348;DHT22;18821;44.800;10.326;2022-12-07T04:47:32;5.10;99.90
32348;DHT22;18821;44.800;10.326;2022-12-07T04:49:58;5.20;99.90
32348;DHT22;18821;44.800;10.326;2022-12-07T04:52:24;5.10;99.90
32348;DHT22;18821;44.800;10.326;2022-12-07T04:54:50;5.00;99.90
32348;DHT22;18821;44.800;10.326;2022-12-07T04:57:16;5.00;99.90
32348;DHT22;18821;44.800;10.326;2022-12-07T04:59:42;4.90;99.90
32348;DHT22;18821;44.800;10.326;2022-12-07T05:02:08;4.90;99.90
32348;DHT22;18821;44.800;10.326;2022-12-07T05:04:34;4.80;99.90
32348;DHT22;18821;44.800;10.326;2022-12-07T05:07:00;4.70;99.90
32348;DHT22;18821;44.800;10.326;2022-12-07T05:09:26;4.80;99.90
32348;DHT22;18821;44.800;10.326;2022-12-07T05:11:52;4.80;99.90
32348;DHT22;18821;44.800;10.326;2022-12-07T05:14:19;4.80;99.90
32348;DHT22;18821;44.800;10.326;2022-12-07T05:16:48;4.70;99.90
32348;DHT22;18821;44.800;10.326;2022-12-07T05:19:14;4.70;99.90
32348;DHT22;18821;44.800;10.326;2022-12-07T05:21:40;4.70;99.90
32348;DHT22;18821;44.800;10.326;2022-12-07T05:24:09;4.60;99.90
32348;DHT22;18821;44.800;10.326;2022-12-07T05:26:35;4.50;99.90
32348;DHT22;18821;44.800;10.326;2022-12-07T05:29:01;4.50;99.90
32348;DHT22;18821;44.800;10.326;2022-12-07T05:31:27;4.50;99.90
32348;DHT22;18821;44.800;10.326;2022-12-07T05:33:53;4.40;99.90
32348;DHT22;18821;44.800;10.326;2022-12-07T05:36:19;4.40;99.90
32348;DHT22;18821;44.800;10.326;2022-12-07T05:38:45;4.30;99.90
32348;DHT22;18821;44.800;10.326;2022-12-07T05:41:14;4.30;99.90
32348;DHT22;18821;44.800;10.326;2022-12-07T05:43:58;4.20;99.90
32348;DHT22;18821;44.800;10.326;2022-12-07T05:46:24;4.00;99.90
32348;DHT22;18821;44.800;10.326;2022-12-07T05:48:51;3.90;99.90
32348;DHT22;18821;44.800;10.326;2022-12-07T05:51:17;3.90;99.90
32348;DHT22;18821;44.800;10.326;2022-12-07T05:53:43;3.90;99.90
32348;DHT22;18821;44.800;10.326;2022-12-07T05:56:09;3.50;99.90
32348;DHT22;18821;44.800;10.326;2022-12-07T05:58:35;3.60;99.90
32348;DHT22;18821;44.800;10.326;2022-12-07T06:01:20;3.60;99.90
32348;DHT22;18821;44.800;10.326;2022-12-07T06:03:46;3.80;99.90
32348;DHT22;18821;44.800;10.326;2022-12-07T06:06:12;3.80;99.90
32348;DHT22;18821;44.800;10.326;2022-12-07T06:08:38;3.90;99.90
32348;DHT22;18821;44.800;10.326;2022-12-07T06:11:04;3.90;99.90
32348;DHT22;18821;44.800;10.326;2022-12-07T06:13:48;4.00;99.90
32348;DHT22;18821;44.800;10.326;2022-12-07T06:16:14;4.10;99.90
32348;DHT22;18821;44.800;10.326;2022-12-07T06:18:40;4.10;99.90
32348;DHT22;18821;44.800;10.326;2022-12-07T06:21:06;4.20;99.90
32348;DHT22;18821;44.800;10.326;2022-12-07T06:23:32;4.20;99.90
32348;DHT22;18821;44.800;10.326;2022-12-07T06:25:58;4.30;99.90
32348;DHT22;18821;44.800;10.326;2022-12-07T06:28:24;4.20;99.90
32348;DHT22;18821;44.800;10.326;2022-12-07T06:31:00;4.30;99.90
32348;DHT22;18821;44.800;10.326;2022-12-07T06:33:27;4.40;99.90
32348;DHT22;18821;44.800;10.326;2022-12-07T06:35:54;4.40;99.90
32348;DHT22;18821;44.800;10.326;2022-12-07T06:38:20;4.30;99.90
32348;DHT22;18821;44.800;10.326;2022-12-07T06:40:46;4.10;99.90
32348;DHT22;18821;44.800;10.326;2022-12-07T06:43:12;4.10;99.90
32348;DHT22;18821;44.800;10.326;2022-12-07T06:45:38;4.30;99.90
32348;DHT22;18821;44.800;10.326;2022-12-07T06:48:04;4.30;99.90
32348;DHT22;18821;44.800;10.326;2022-12-07T06:50:30;4.40;99.90
32348;DHT22;18821;44.800;10.326;2022-12-07T06:52:57;4.40;99.90
32348;DHT22;18821;44.800;10.326;2022-12-07T06:55:23;4.30;99.90
32348;DHT22;18821;44.800;10.326;2022-12-07T06:57:49;4.20;99.90
32348;DHT22;18821;44.800;10.326;2022-12-07T07:00:15;4.20;99.90
32348;DHT22;18821;44.800;10.326;2022-12-07T07:02:41;4.20;99.90
32348;DHT22;18821;44.800;10.326;2022-12-07T07:05:08;4.30;99.90
32348;DHT22;18821;44.800;10.326;2022-12-07T07:07:34;4.20;99.90
32348;DHT22;18821;44.800;10.326;2022-12-07T07:09:59;4.00;99.90
32348;DHT22;18821;44.800;10.326;2022-12-07T07:12:25;3.80;99.90
32348;DHT22;18821;44.800;10.326;2022-12-07T07:14:51;3.90;99.90
32348;DHT22;18821;44.800;10.326;2022-12-07T07:17:17;3.90;99.90
32348;DHT22;18821;44.800;10.326;2022-12-07T07:19:43;3.90;99.90
32348;DHT22;18821;44.800;10.326;2022-12-07T07:22:10;4.00;99.90
32348;DHT22;18821;44.800;10.326;2022-12-07T07:24:36;4.10;99.90
32348;DHT22;18821;44.800;10.326;2022-12-07T07:27:03;4.20;99.90
32348;DHT22;18821;44.800;10.326;2022-12-07T07:29:29;4.30;99.90
32348;DHT22;18821;44.800;10.326;2022-12-07T07:31:55;4.20;99.90
32348;DHT22;18821;44.800;10.326;2022-12-07T07:34:21;4.20;99.90
32348;DHT22;18821;44.800;10.326;2022-12-07T07:36:48;4.20;99.90
32348;DHT22;18821;44.800;10.326;2022-12-07T07:39:14;4.30;99.90
32348;DHT22;18821;44.800;10.326;2022-12-07T07:41:40;4.30;99.90
32348;DHT22;18821;44.800;10.326;2022-12-07T07:44:12;4.20;99.90
32348;DHT22;18821;44.800;10.326;2022-12-07T07:46:38;3.90;99.90
32348;DHT22;18821;44.800;10.326;2022-12-07T07:49:04;3.80;99.90
32348;DHT22;18821;44.800;10.326;2022-12-07T07:51:30;4.00;99.90
32348;DHT22;18821;44.800;10.326;2022-12-07T07:53:57;4.00;99.90
32348;DHT22;18821;44.800;10.326;2022-12-07T07:56:23;4.10;99.90
32348;DHT22;18821;44.800;10.326;2022-12-07T07:58:52;4.20;99.90
32348;DHT22;18821;44.800;10.326;2022-12-07T08:01:18;4.10;99.90
32348;DHT22;18821;44.800;10.326;2022-12-07T08:03:47;4.00;99.90
32348;DHT22;18821;44.800;10.326;2022-12-07T08:06:13;4.10;99.90
32348;DHT22;18821;44.800;10.326;2022-12-07T08:08:39;4.10;99.90
32348;DHT22;18821;44.800;10.326;2022-12-07T08:11:07;4.00;99.90
32348;DHT22;18821;44.800;10.326;2022-12-07T08:13:34;4.10;99.90
32348;DHT22;18821;44.800;10.326;2022-12-07T08:16:08;4.10;99.90
32348;DHT22;18821;44.800;10.326;2022-12-07T08:18:39;4.10;99.90
32348;DHT22;18821;44.800;10.326;2022-12-07T08:21:06;4.10;99.90
32348;DHT22;18821;44.800;10.326;2022-12-07T08:23:33;4.20;99.90
32348;DHT22;18821;44.800;10.326;2022-12-07T08:26:05;4.10;99.90
32348;DHT22;18821;44.800;10.326;2022-12-07T08:28:31;4.10;99.90
32348;DHT22;18821;44.800;10.326;2022-12-07T08:31:02;4.10;99.90
32348;DHT22;18821;44.800;10.326;2022-12-07T08:33:29;4.20;99.90
32348;DHT22;18821;44.800;10.326;2022-12-07T08:36:07;4.10;99.90
32348;DHT22;18821;44.800;10.326;2022-12-07T08:38:36;4.20;99.90
32348;DHT22;18821;44.800;10.326;2022-12-07T08:41:03;4.30;99.90
32348;DHT22;18821;44.800;10.326;2022-12-07T08:43:29;4.40;99.90
32348;DHT22;18821;44.800;10.326;2022-12-07T08:48:53;4.60;99.90
32348;DHT22;18821;44.800;10.326;2022-12-07T08:51:22;4.60;99.90
32348;DHT22;18821;44.800;10.326;2022-12-07T08:53:49;4.60;99.90
32348;DHT22;18821;44.800;10.326;2022-12-07T08:56:17;4.50;99.90
32348;DHT22;18821;44.800;10.326;2022-12-07T08:58:44;4.50;99.90
32348;DHT22;18821;44.800;10.326;2022-12-07T09:01:10;4.60;99.90
32348;DHT22;18821;44.800;10.326;2022-12-07T09:03:36;4.70;99.90
32348;DHT22;18821;44.800;10.326;2022-12-07T09:06:03;4.70;99.90
32348;DHT22;18821;44.800;10.326;2022-12-07T09:08:40;4.60;99.90
32348;DHT22;18821;44.800;10.326;2022-12-07T09:11:08;4.40;99.90
32348;DHT22;18821;44.800;10.326;2022-12-07T09:13:34;4.60;99.90
32348;DHT22;18821;44.800;10.326;2022-12-07T09:15:59;4.50;99.90
32348;DHT22;18821;44.800;10.326;2022-12-07T09:18:27;4.60;99.90
32348;DHT22;18821;44.800;10.326;2022-12-07T09:20:52;4.60;99.90
32348;DHT22;18821;44.800;10.326;2022-12-07T09:23:18;4.70;99.90
32348;DHT22;18821;44.800;10.326;2022-12-07T09:25:44;4.90;99.90
32348;DHT22;18821;44.800;10.326;2022-12-07T09:28:10;5.10;99.90
32348;DHT22;18821;44.800;10.326;2022-12-07T09:30:36;5.20;99.90
32348;DHT22;18821;44.800;10.326;2022-12-07T09:33:02;5.20;99.90
32348;DHT22;18821;44.800;10.326;2022-12-07T09:35:28;5.00;99.90
32348;DHT22;18821;44.800;10.326;2022-12-07T09:37:54;5.00;99.90
32348;DHT22;18821;44.800;10.326;2022-12-07T09:40:21;5.10;99.90
32348;DHT22;18821;44.800;10.326;2022-12-07T09:42:51;5.00;99.90
32348;DHT22;18821;44.800;10.326;2022-12-07T09:45:24;5.20;99.90
32348;DHT22;18821;44.800;10.326;2022-12-07T09:47:52;5.20;99.90
32348;DHT22;18821;44.800;10.326;2022-12-07T09:50:22;5.20;99.90
32348;DHT22;18821;44.800;10.326;2022-12-07T09:52:49;5.30;99.90
32348;DHT22;18821;44.800;10.326;2022-12-07T09:55:26;5.40;99.90
32348;DHT22;18821;44.800;10.326;2022-12-07T09:57:53;5.50;99.90
32348;DHT22;18821;44.800;10.326;2022-12-07T10:00:21;5.70;99.90
32348;DHT22;18821;44.800;10.326;2022-12-07T10:02:59;5.80;99.90
32348;DHT22;18821;44.800;10.326;2022-12-07T10:08:24;5.90;99.90
32348;DHT22;18821;44.800;10.326;2022-12-07T10:11:03;5.50;99.90
32348;DHT22;18821;44.800;10.326;2022-12-07T10:13:40;5.20;99.90
32348;DHT22;18821;44.800;10.326;2022-12-07T10:16:41;5.40;99.90
32348;DHT22;18821;44.800;10.326;2022-12-07T10:19:31;5.40;99.90
32348;DHT22;18821;44.800;10.326;2022-12-07T10:22:13;5.50;99.90
32348;DHT22;18821;44.800;10.326;2022-12-07T10:24:40;5.60;99.90
32348;DHT22;18821;44.800;10.326;2022-12-07T10:27:31;5.50;99.90
32348;DHT22;18821;44.800;10.326;2022-12-07T10:29:57;5.50;99.90
32348;DHT22;18821;44.800;10.326;2022-12-07T10:32:30;5.60;99.90
32348;DHT22;18821;44.800;10.326;2022-12-07T10:35:26;5.50;99.90
32348;DHT22;18821;44.800;10.326;2022-12-07T10:37:54;5.40;99.90
32348;DHT22;18821;44.800;10.326;2022-12-07T10:51:12;5.50;99.90
32348;DHT22;18821;44.800;10.326;2022-12-07T10:54:08;5.60;99.90
32348;DHT22;18821;44.800;10.326;2022-12-07T11:08:19;6.40;99.90
32348;DHT22;18821;44.800;10.326;2022-12-07T11:11:06;6.60;99.90
32348;DHT22;18821;44.800;10.326;2022-12-07T11:22:09;5.90;99.90
32348;DHT22;18821;44.800;10.326;2022-12-07T11:27:12;5.80;99.90
32348;DHT22;18821;44.800;10.326;2022-12-07T11:32:30;5.80;99.90
32348;DHT22;18821;44.800;10.326;2022-12-07T11:37:41;6.20;99.90
32348;DHT22;18821;44.800;10.326;2022-12-07T11:40:24;6.10;99.90
32348;DHT22;18821;44.800;10.326;2022-12-07T11:45:46;5.70;99.90
32348;DHT22;18821;44.800;10.326;2022-12-07T11:48:22;5.60;99.90
32348;DHT22;18821;44.800;10.326;2022-12-07T11:50:52;5.60;99.90
32348;DHT22;18821;44.800;10.326;2022-12-07T11:53:33;5.40;99.90
32348;DHT22;18821;44.800;10.326;2022-12-07T11:56:21;5.20;99.90
32348;DHT22;18821;44.800;10.326;2022-12-07T11:58:53;5.30;99.90
32348;DHT22;18821;44.800;10.326;2022-12-07T12:03:59;5.30;99.90
32348;DHT22;18821;44.800;10.326;2022-12-07T12:06:26;5.20;99.90
32348;DHT22;18821;44.800;10.326;2022-12-07T12:23:23;5.00;99.90
32348;DHT22;18821;44.800;10.326;2022-12-07T12:25:52;4.90;99.90
32348;DHT22;18821;44.800;10.326;2022-12-07T12:31:11;4.70;99.90
32348;DHT22;18821;44.800;10.326;2022-12-07T12:33:49;4.80;99.90
32348;DHT22;18821;44.800;10.326;2022-12-07T12:51:53;4.40;99.90
32348;DHT22;18821;44.800;10.326;2022-12-07T12:54:32;4.50;99.90
32348;DHT22;18821;44.800;10.326;2022-12-07T13:02:26;4.60;99.90
32348;DHT22;18821;44.800;10.326;2022-12-07T13:10:39;4.50;99.90
32348;DHT22;18821;44.800;10.326;2022-12-07T13:15:41;4.60;99.90
32348;DHT22;18821;44.800;10.326;2022-12-07T13:20:46;4.50;99.90
32348;DHT22;18821;44.800;10.326;2022-12-07T13:23:18;4.40;99.90
32348;DHT22;18821;44.800;10.326;2022-12-07T13:28:39;4.50;99.90
32348;DHT22;18821;44.800;10.326;2022-12-07T13:31:14;4.20;99.90
32348;DHT22;18821;44.800;10.326;2022-12-07T13:33:46;4.10;99.90
32348;DHT22;18821;44.800;10.326;2022-12-07T13:36:22;4.20;99.90
32348;DHT22;18821;44.800;10.326;2022-12-07T13:38:58;4.40;99.90
32348;DHT22;18821;44.800;10.326;2022-12-07T13:41:28;4.50;99.90
32348;DHT22;18821;44.800;10.326;2022-12-07T13:46:40;4.50;99.90
32348;DHT22;18821;44.800;10.326;2022-12-07T13:49:29;4.60;99.90
32348;DHT22;18821;44.800;10.326;2022-12-07T13:52:18;4.50;99.90
32348;DHT22;18821;44.800;10.326;2022-12-07T13:54:59;4.60;99.90
32348;DHT22;18821;44.800;10.326;2022-12-07T13:57:27;4.60;99.90
32348;DHT22;18821;44.800;10.326;2022-12-07T13:59:53;4.60;99.90
32348;DHT22;18821;44.800;10.326;2022-12-07T14:02:30;4.60;99.90
32348;DHT22;18821;44.800;10.326;2022-12-07T14:05:09;4.50;99.90
32348;DHT22;18821;44.800;10.326;2022-12-07T14:07:35;4.70;99.90
32348;DHT22;18821;44.800;10.326;2022-12-07T14:10:05;4.70;99.90
32348;DHT22;18821;44.800;10.326;2022-12-07T14:12:32;4.70;99.90
32348;DHT22;18821;44.800;10.326;2022-12-07T14:15:02;4.70;99.90
32348;DHT22;18821;44.800;10.326;2022-12-07T14:17:28;4.70;99.90
32348;DHT22;18821;44.800;10.326;2022-12-07T14:20:00;4.80;99.90
32348;DHT22;18821;44.800;10.326;2022-12-07T14:22:38;4.80;99.90
32348;DHT22;18821;44.800;10.326;2022-12-07T14:27:40;4.40;99.90
32348;DHT22;18821;44.800;10.326;2022-12-07T14:30:17;4.30;99.90
32348;DHT22;18821;44.800;10.326;2022-12-07T14:32:43;4.50;99.90
32348;DHT22;18821;44.800;10.326;2022-12-07T14:35:16;4.60;99.90
32348;DHT22;18821;44.800;10.326;2022-12-07T14:37:44;4.80;99.90
32348;DHT22;18821;44.800;10.326;2022-12-07T14:40:22;4.80;99.90
32348;DHT22;18821;44.800;10.326;2022-12-07T14:42:57;4.60;99.90
32348;DHT22;18821;44.800;10.326;2022-12-07T14:45:23;4.40;99.90
32348;DHT22;18821;44.800;10.326;2022-12-07T14:47:49;4.50;99.90
32348;DHT22;18821;44.800;10.326;2022-12-07T14:50:18;4.50;99.90
32348;DHT22;18821;44.800;10.326;2022-12-07T14:52:48;4.50;99.90
32348;DHT22;18821;44.800;10.326;2022-12-07T14:55:29;4.60;99.90
32348;DHT22;18821;44.800;10.326;2022-12-07T14:57:56;4.80;99.90
32348;DHT22;18821;44.800;10.326;2022-12-07T15:00:24;4.80;99.90
32348;DHT22;18821;44.800;10.326;2022-12-07T15:02:51;4.70;99.90
32348;DHT22;18821;44.800;10.326;2022-12-07T15:05:17;4.40;99.90
32348;DHT22;18821;44.800;10.326;2022-12-07T15:07:45;4.20;99.90
32348;DHT22;18821;44.800;10.326;2022-12-07T15:10:37;4.10;99.90
32348;DHT22;18821;44.800;10.326;2022-12-07T15:13:07;4.10;99.90
32348;DHT22;18821;44.800;10.326;2022-12-07T15:15:53;4.10;99.90
32348;DHT22;18821;44.800;10.326;2022-12-07T15:18:21;4.10;99.90
32348;DHT22;18821;44.800;10.326;2022-12-07T15:20:47;4.00;99.90
32348;DHT22;18821;44.800;10.326;2022-12-07T15:23:13;4.10;99.90
32348;DHT22;18821;44.800;10.326;2022-12-07T15:25:44;4.00;99.90
32348;DHT22;18821;44.800;10.326;2022-12-07T15:28:10;4.10;99.90
32348;DHT22;18821;44.800;10.326;2022-12-07T15:30:37;4.30;99.90
32348;DHT22;18821;44.800;10.326;2022-12-07T15:33:03;4.40;99.90
32348;DHT22;18821;44.800;10.326;2022-12-07T15:35:29;4.50;99.90
32348;DHT22;18821;44.800;10.326;2022-12-07T15:37:55;4.50;99.90
32348;DHT22;18821;44.800;10.326;2022-12-07T15:40:21;4.60;99.90
32348;DHT22;18821;44.800;10.326;2022-12-07T15:42:47;4.50;99.90
32348;DHT22;18821;44.800;10.326;2022-12-07T15:45:13;4.40;99.90
32348;DHT22;18821;44.800;10.326;2022-12-07T15:47:44;4.30;99.90
32348;DHT22;18821;44.800;10.326;2022-12-07T15:50:13;4.30;99.90
32348;DHT22;18821;44.800;10.326;2022-12-07T15:52:40;4.30;99.90
32348;DHT22;18821;44.800;10.326;2022-12-07T15:55:07;4.20;99.90
32348;DHT22;18821;44.800;10.326;2022-12-07T15:57:36;4.10;99.90
32348;DHT22;18821;44.800;10.326;2022-12-07T16:00:04;4.10;99.90
32348;DHT22;18821;44.800;10.326;2022-12-07T16:02:32;4.00;99.90
32348;DHT22;18821;44.800;10.326;2022-12-07T16:04:58;4.10;99.90
32348;DHT22;18821;44.800;10.326;2022-12-07T16:07:24;4.20;99.90
32348;DHT22;18821;44.800;10.326;2022-12-07T16:09:50;4.30;99.90
32348;DHT22;18821;44.800;10.326;2022-12-07T16:12:16;4.10;99.90
32348;DHT22;18821;44.800;10.326;2022-12-07T16:14:43;4.10;99.90
32348;DHT22;18821;44.800;10.326;2022-12-07T16:17:09;4.30;99.90
32348;DHT22;18821;44.800;10.326;2022-12-07T16:19:36;4.40;99.90
32348;DHT22;18821;44.800;10.326;2022-12-07T16:22:03;4.50;99.90
32348;DHT22;18821;44.800;10.326;2022-12-07T16:24:30;4.50;99.90
32348;DHT22;18821;44.800;10.326;2022-12-07T16:26:56;4.60;99.90
32348;DHT22;18821;44.800;10.326;2022-12-07T16:29:22;4.60;99.90
32348;DHT22;18821;44.800;10.326;2022-12-07T16:31:49;4.60;99.90
32348;DHT22;18821;44.800;10.326;2022-12-07T16:34:15;4.30;99.90
32348;DHT22;18821;44.800;10.326;2022-12-07T16:36:41;4.30;99.90
32348;DHT22;18821;44.800;10.326;2022-12-07T16:39:08;4.10;99.90
32348;DHT22;18821;44.800;10.326;2022-12-07T16:41:34;4.10;99.90
32348;DHT22;18821;44.800;10.326;2022-12-07T16:44:03;4.20;99.90
32348;DHT22;18821;44.800;10.326;2022-12-07T16:46:32;4.30;99.90
32348;DHT22;18821;44.800;10.326;2022-12-07T16:48:58;4.40;99.90
32348;DHT22;18821;44.800;10.326;2022-12-07T16:51:24;4.50;99.90
32348;DHT22;18821;44.800;10.326;2022-12-07T16:53:52;4.60;99.90
32348;DHT22;18821;44.800;10.326;2022-12-07T16:56:19;4.60;99.90
32348;DHT22;18821;44.800;10.326;2022-12-07T16:58:45;4.60;99.90
32348;DHT22;18821;44.800;10.326;2022-12-07T17:01:17;4.60;99.90
32348;DHT22;18821;44.800;10.326;2022-12-07T17:03:44;4.60;99.90
32348;DHT22;18821;44.800;10.326;2022-12-07T17:06:16;4.70;99.90
32348;DHT22;18821;44.800;10.326;2022-12-07T17:08:42;4.70;99.90
32348;DHT22;18821;44.800;10.326;2022-12-07T17:11:14;4.60;99.90
32348;DHT22;18821;44.800;10.326;2022-12-07T17:13:40;4.60;99.90
32348;DHT22;18821;44.800;10.326;2022-12-07T17:16:25;4.40;99.90
32348;DHT22;18821;44.800;10.326;2022-12-07T17:18:51;4.00;99.90
32348;DHT22;18821;44.800;10.326;2022-12-07T17:21:18;4.00;99.90
32348;DHT22;18821;44.800;10.326;2022-12-07T17:23:45;4.10;99.90
32348;DHT22;18821;44.800;10.326;2022-12-07T17:26:17;4.00;99.90
32348;DHT22;18821;44.800;10.326;2022-12-07T17:28:43;3.90;99.90
32348;DHT22;18821;44.800;10.326;2022-12-07T17:31:11;3.90;99.90
32348;DHT22;18821;44.800;10.326;2022-12-07T17:33:38;4.00;99.90
32348;DHT22;18821;44.800;10.326;2022-12-07T17:36:15;3.90;99.90
32348;DHT22;18821;44.800;10.326;2022-12-07T17:38:41;3.90;99.90
32348;DHT22;18821;44.800;10.326;2022-12-07T17:41:20;3.90;99.90
32348;DHT22;18821;44.800;10.326;2022-12-07T17:44:11;3.80;99.90
32348;DHT22;18821;44.800;10.326;2022-12-07T17:46:37;3.80;99.90
32348;DHT22;18821;44.800;10.326;2022-12-07T17:49:05;3.80;99.90
32348;DHT22;18821;44.800;10.326;2022-12-07T17:51:31;3.90;99.90
32348;DHT22;18821;44.800;10.326;2022-12-07T17:54:16;3.80;99.90
32348;DHT22;18821;44.800;10.326;2022-12-07T17:56:42;3.80;99.90
32348;DHT22;18821;44.800;10.326;2022-12-07T17:59:08;3.80;99.90
32348;DHT22;18821;44.800;10.326;2022-12-07T18:01:34;3.70;99.90
32348;DHT22;18821;44.800;10.326;2022-12-07T18:04:01;3.70;99.90
32348;DHT22;18821;44.800;10.326;2022-12-07T18:06:27;3.70;99.90
32348;DHT22;18821;44.800;10.326;2022-12-07T18:08:53;3.60;99.90
32348;DHT22;18821;44.800;10.326;2022-12-07T18:11:19;3.60;99.90
32348;DHT22;18821;44.800;10.326;2022-12-07T18:13:45;3.70;99.90
32348;DHT22;18821;44.800;10.326;2022-12-07T18:16:16;3.80;99.90
32348;DHT22;18821;44.800;10.326;2022-12-07T18:18:44;3.80;99.90